sensor_id;sensor_type;location;lat;lon;timestamp;P1;durP1;ratioP1;P2;durP2;ratioP2
73893;SDS011;62227;50.534;12.784;2022-07-19T00:03:59;5.43;;;2.30;;
73893;SDS011;62227;50.534;12.784;2022-07-19T00:08:59;10.00;;;2.17;;
73893;SDS011;62227;50.534;12.784;2022-07-19T00:14:00;4.53;;;2.05;;
73893;SDS011;62227;50.534;12.784;2022-07-19T00:19:00;6.38;;;2.55;;
73893;SDS011;62227;50.534;12.784;2022-07-19T00:24:01;7.60;;;2.22;;
73893;SDS011;62227;50.534;12.784;2022-07-19T00:29:01;4.15;;;2.20;;
73893;SDS011;62227;50.534;12.784;2022-07-19T00:34:02;4.93;;;2.30;;
73893;SDS011;62227;50.534;12.784;2022-07-19T00:39:03;4.50;;;2.10;;
73893;SDS011;62227;50.534;12.784;2022-07-19T00:44:04;4.20;;;1.90;;
73893;SDS011;62227;50.534;12.784;2022-07-19T00:49:04;6.88;;;2.50;;
73893;SDS011;62227;50.534;12.784;2022-07-19T00:54:05;5.57;;;2.10;;
73893;SDS011;62227;50.534;12.784;2022-07-19T00:59:08;6.20;;;2.47;;
73893;SDS011;62227;50.534;12.784;2022-07-19T01:04:08;4.57;;;1.95;;
73893;SDS011;62227;50.534;12.784;2022-07-19T01:09:10;3.80;;;2.10;;
73893;SDS011;62227;50.534;12.784;2022-07-19T01:14:11;5.25;;;2.20;;
73893;SDS011;62227;50.534;12.784;2022-07-19T01:19:11;4.80;;;2.42;;
73893;SDS011;62227;50.534;12.784;2022-07-19T01:24:13;4.30;;;2.10;;
73893;SDS011;62227;50.534;12.784;2022-07-19T01:29:17;5.38;;;2.45;;
73893;SDS011;62227;50.534;12.784;2022-07-19T01:34:17;5.05;;;2.35;;
73893;SDS011;62227;50.534;12.784;2022-07-19T01:39:18;5.15;;;2.60;;
73893;SDS011;62227;50.534;12.784;2022-07-19T01:44:18;5.97;;;2.42;;
73893;SDS011;62227;50.534;12.784;2022-07-19T01:49:18;3.85;;;2.20;;
73893;SDS011;62227;50.534;12.784;2022-07-19T01:54:19;4.65;;;2.72;;
73893;SDS011;62227;50.534;12.784;2022-07-19T01:59:19;5.05;;;2.17;;
73893;SDS011;62227;50.534;12.784;2022-07-19T02:04:20;4.90;;;2.00;;
73893;SDS011;62227;50.534;12.784;2022-07-19T02:09:20;3.75;;;2.17;;
73893;SDS011;62227;50.534;12.784;2022-07-19T02:14:21;4.72;;;2.50;;
73893;SDS011;62227;50.534;12.784;2022-07-19T02:19:21;5.25;;;2.67;;
73893;SDS011;62227;50.534;12.784;2022-07-19T02:24:21;7.03;;;2.80;;
73893;SDS011;62227;50.534;12.784;2022-07-19T02:29:22;7.18;;;2.90;;
73893;SDS011;62227;50.534;12.784;2022-07-19T02:34:22;4.82;;;2.70;;
73893;SDS011;62227;50.534;12.784;2022-07-19T02:39:23;5.45;;;2.50;;
73893;SDS011;62227;50.534;12.784;2022-07-19T02:44:23;5.15;;;2.50;;
73893;SDS011;62227;50.534;12.784;2022-07-19T02:49:23;5.25;;;2.25;;
73893;SDS011;62227;50.534;12.784;2022-07-19T02:54:24;6.45;;;2.47;;
73893;SDS011;62227;50.534;12.784;2022-07-19T02:59:24;4.65;;;2.60;;
73893;SDS011;62227;50.534;12.784;2022-07-19T03:04:25;6.57;;;2.53;;
73893;SDS011;62227;50.534;12.784;2022-07-19T03:09:25;4.00;;;2.30;;
73893;SDS011;62227;50.534;12.784;2022-07-19T03:14:25;6.22;;;3.00;;
73893;SDS011;62227;50.534;12.784;2022-07-19T03:19:27;7.72;;;2.65;;
73893;SDS011;62227;50.534;12.784;2022-07-19T03:24:28;4.97;;;2.78;;
73893;SDS011;62227;50.534;12.784;2022-07-19T03:29:29;6.55;;;2.50;;
73893;SDS011;62227;50.534;12.784;2022-07-19T03:34:29;6.47;;;2.90;;
73893;SDS011;62227;50.534;12.784;2022-07-19T03:39:29;4.72;;;2.55;;
73893;SDS011;62227;50.534;12.784;2022-07-19T03:44:30;7.50;;;2.70;;
73893;SDS011;62227;50.534;12.784;2022-07-19T03:49:30;6.45;;;2.63;;
73893;SDS011;62227;50.534;12.784;2022-07-19T03:54:31;6.75;;;3.42;;
73893;SDS011;62227;50.534;12.784;2022-07-19T03:59:31;5.07;;;2.53;;
73893;SDS011;62227;50.534;12.784;2022-07-19T04:04:31;5.53;;;2.70;;
73893;SDS011;62227;50.534;12.784;2022-07-19T04:09:32;6.25;;;2.80;;
73893;SDS011;62227;50.534;12.784;2022-07-19T04:14:32;6.75;;;2.80;;
73893;SDS011;62227;50.534;12.784;2022-07-19T04:19:32;7.50;;;2.60;;
73893;SDS011;62227;50.534;12.784;2022-07-19T04:24:33;8.32;;;2.85;;
73893;SDS011;62227;50.534;12.784;2022-07-19T04:29:33;5.97;;;3.20;;
73893;SDS011;62227;50.534;12.784;2022-07-19T04:34:34;4.15;;;2.63;;
73893;SDS011;62227;50.534;12.784;2022-07-19T04:39:34;8.10;;;2.70;;
73893;SDS011;62227;50.534;12.784;2022-07-19T04:44:34;5.72;;;2.70;;
73893;SDS011;62227;50.534;12.784;2022-07-19T04:49:35;6.20;;;2.75;;
73893;SDS011;62227;50.534;12.784;2022-07-19T04:54:35;8.27;;;3.25;;
73893;SDS011;62227;50.534;12.784;2022-07-19T04:59:36;6.13;;;3.13;;
73893;SDS011;62227;50.534;12.784;2022-07-19T05:04:36;6.75;;;2.88;;
73893;SDS011;62227;50.534;12.784;2022-07-19T05:09:36;6.68;;;2.88;;
73893;SDS011;62227;50.534;12.784;2022-07-19T05:14:37;5.15;;;2.67;;
73893;SDS011;62227;50.534;12.784;2022-07-19T05:19:37;8.57;;;2.95;;
73893;SDS011;62227;50.534;12.784;2022-07-19T05:24:38;7.18;;;3.15;;
73893;SDS011;62227;50.534;12.784;2022-07-19T05:29:38;6.22;;;2.60;;
73893;SDS011;62227;50.534;12.784;2022-07-19T05:34:38;7.93;;;3.17;;
73893;SDS011;62227;50.534;12.784;2022-07-19T05:39:39;5.15;;;2.65;;
73893;SDS011;62227;50.534;12.784;2022-07-19T05:44:39;4.35;;;2.53;;
73893;SDS011;62227;50.534;12.784;2022-07-19T05:49:40;5.15;;;2.75;;
73893;SDS011;62227;50.534;12.784;2022-07-19T05:54:40;4.80;;;2.50;;
73893;SDS011;62227;50.534;12.784;2022-07-19T05:59:41;4.38;;;2.20;;
73893;SDS011;62227;50.534;12.784;2022-07-19T06:04:41;6.57;;;2.50;;
73893;SDS011;62227;50.534;12.784;2022-07-19T06:09:41;4.33;;;2.47;;
73893;SDS011;62227;50.534;12.784;2022-07-19T06:14:42;4.73;;;2.10;;
73893;SDS011;62227;50.534;12.784;2022-07-19T06:19:42;4.05;;;2.10;;
73893;SDS011;62227;50.534;12.784;2022-07-19T06:24:42;3.97;;;2.10;;
73893;SDS011;62227;50.534;12.784;2022-07-19T06:29:43;3.80;;;2.17;;
73893;SDS011;62227;50.534;12.784;2022-07-19T06:34:43;4.33;;;2.17;;
73893;SDS011;62227;50.534;12.784;2022-07-19T06:39:43;4.53;;;1.90;;
73893;SDS011;62227;50.534;12.784;2022-07-19T06:44:44;5.50;;;2.28;;
73893;SDS011;62227;50.534;12.784;2022-07-19T06:49:45;3.53;;;1.98;;
73893;SDS011;62227;50.534;12.784;2022-07-19T06:54:45;3.63;;;2.17;;
73893;SDS011;62227;50.534;12.784;2022-07-19T06:59:46;3.08;;;1.75;;
73893;SDS011;62227;50.534;12.784;2022-07-19T07:04:46;3.47;;;2.00;;
73893;SDS011;62227;50.534;12.784;2022-07-19T07:09:46;4.38;;;2.20;;
73893;SDS011;62227;50.534;12.784;2022-07-19T07:14:47;4.33;;;1.77;;
73893;SDS011;62227;50.534;12.784;2022-07-19T07:19:47;3.30;;;1.87;;
73893;SDS011;62227;50.534;12.784;2022-07-19T07:24:47;4.45;;;1.80;;
73893;SDS011;62227;50.534;12.784;2022-07-19T07:29:48;4.63;;;2.37;;
73893;SDS011;62227;50.534;12.784;2022-07-19T07:34:48;4.18;;;1.85;;
73893;SDS011;62227;50.534;12.784;2022-07-19T07:39:49;3.45;;;1.77;;
73893;SDS011;62227;50.534;12.784;2022-07-19T07:44:49;3.53;;;1.80;;
73893;SDS011;62227;50.534;12.784;2022-07-19T07:49:50;3.63;;;1.80;;
73893;SDS011;62227;50.534;12.784;2022-07-19T07:54:50;2.78;;;1.90;;
73893;SDS011;62227;50.534;12.784;2022-07-19T07:59:53;3.42;;;1.70;;
73893;SDS011;62227;50.534;12.784;2022-07-19T08:04:53;2.40;;;1.70;;
73893;SDS011;62227;50.534;12.784;2022-07-19T08:09:53;4.20;;;1.70;;
73893;SDS011;62227;50.534;12.784;2022-07-19T08:14:54;3.90;;;1.67;;
73893;SDS011;62227;50.534;12.784;2022-07-19T08:19:54;3.07;;;1.73;;
73893;SDS011;62227;50.534;12.784;2022-07-19T08:24:54;3.87;;;1.73;;
73893;SDS011;62227;50.534;12.784;2022-07-19T08:29:55;4.15;;;1.80;;
73893;SDS011;62227;50.534;12.784;2022-07-19T08:34:55;6.17;;;1.60;;
73893;SDS011;62227;50.534;12.784;2022-07-19T08:39:56;3.67;;;1.60;;
73893;SDS011;62227;50.534;12.784;2022-07-19T08:44:57;4.38;;;1.90;;
73893;SDS011;62227;50.534;12.784;2022-07-19T08:50:02;3.55;;;1.50;;
73893;SDS011;62227;50.534;12.784;2022-07-19T08:55:05;3.47;;;1.70;;
73893;SDS011;62227;50.534;12.784;2022-07-19T09:00:06;3.08;;;1.52;;
73893;SDS011;62227;50.534;12.784;2022-07-19T09:05:10;2.95;;;1.75;;
73893;SDS011;62227;50.534;12.784;2022-07-19T09:10:17;4.47;;;1.77;;
73893;SDS011;62227;50.534;12.784;2022-07-19T09:15:19;3.25;;;1.75;;
73893;SDS011;62227;50.534;12.784;2022-07-19T09:20:26;4.07;;;1.70;;
73893;SDS011;62227;50.534;12.784;2022-07-19T09:30:41;3.40;;;1.60;;
73893;SDS011;62227;50.534;12.784;2022-07-19T09:35:49;5.50;;;2.00;;
73893;SDS011;62227;50.534;12.784;2022-07-19T09:46:26;4.23;;;1.80;;
73893;SDS011;62227;50.534;12.784;2022-07-19T09:51:27;5.68;;;1.92;;
73893;SDS011;62227;50.534;12.784;2022-07-19T09:56:29;5.53;;;1.80;;
73893;SDS011;62227;50.534;12.784;2022-07-19T10:01:30;3.85;;;2.00;;
73893;SDS011;62227;50.534;12.784;2022-07-19T10:06:32;3.50;;;1.85;;
73893;SDS011;62227;50.534;12.784;2022-07-19T10:11:33;5.43;;;2.03;;
73893;SDS011;62227;50.534;12.784;2022-07-19T10:21:59;3.85;;;1.92;;
73893;SDS011;62227;50.534;12.784;2022-07-19T10:27:00;3.95;;;2.03;;
73893;SDS011;62227;50.534;12.784;2022-07-19T10:32:04;4.18;;;2.03;;
73893;SDS011;62227;50.534;12.784;2022-07-19T10:37:06;3.47;;;1.80;;
73893;SDS011;62227;50.534;12.784;2022-07-19T10:42:14;7.85;;;2.15;;
73893;SDS011;62227;50.534;12.784;2022-07-19T10:47:19;4.03;;;2.00;;
73893;SDS011;62227;50.534;12.784;2022-07-19T10:57:35;4.75;;;2.50;;
73893;SDS011;62227;50.534;12.784;2022-07-19T11:02:37;3.95;;;2.17;;
73893;SDS011;62227;50.534;12.784;2022-07-19T11:07:37;4.32;;;2.40;;
73893;SDS011;62227;50.534;12.784;2022-07-19T11:12:38;4.38;;;2.20;;
73893;SDS011;62227;50.534;12.784;2022-07-19T11:17:38;5.00;;;2.40;;
73893;SDS011;62227;50.534;12.784;2022-07-19T11:22:40;3.70;;;2.10;;
73893;SDS011;62227;50.534;12.784;2022-07-19T11:27:43;5.18;;;2.40;;
73893;SDS011;62227;50.534;12.784;2022-07-19T11:32:50;3.47;;;2.25;;
73893;SDS011;62227;50.534;12.784;2022-07-19T11:37:53;4.80;;;2.25;;
73893;SDS011;62227;50.534;12.784;2022-07-19T11:42:54;6.45;;;2.75;;
73893;SDS011;62227;50.534;12.784;2022-07-19T11:47:55;6.30;;;2.87;;
73893;SDS011;62227;50.534;12.784;2022-07-19T11:52:57;6.20;;;2.20;;
73893;SDS011;62227;50.534;12.784;2022-07-19T11:57:59;4.80;;;2.38;;
73893;SDS011;62227;50.534;12.784;2022-07-19T12:03:03;5.65;;;2.72;;
73893;SDS011;62227;50.534;12.784;2022-07-19T12:13:10;7.80;;;2.90;;
73893;SDS011;62227;50.534;12.784;2022-07-19T12:18:11;8.13;;;2.80;;
73893;SDS011;62227;50.534;12.784;2022-07-19T12:23:16;5.15;;;2.30;;
73893;SDS011;62227;50.534;12.784;2022-07-19T12:28:25;5.82;;;3.08;;
73893;SDS011;62227;50.534;12.784;2022-07-19T12:33:26;5.70;;;3.00;;
73893;SDS011;62227;50.534;12.784;2022-07-19T12:38:27;6.07;;;2.63;;
73893;SDS011;62227;50.534;12.784;2022-07-19T12:43:31;6.07;;;2.85;;
73893;SDS011;62227;50.534;12.784;2022-07-19T12:48:31;6.13;;;2.65;;
73893;SDS011;62227;50.534;12.784;2022-07-19T12:53:32;4.82;;;2.42;;
73893;SDS011;62227;50.534;12.784;2022-07-19T12:58:32;8.13;;;2.72;;
73893;SDS011;62227;50.534;12.784;2022-07-19T13:03:51;7.30;;;3.08;;
73893;SDS011;62227;50.534;12.784;2022-07-19T13:08:52;6.40;;;2.80;;
73893;SDS011;62227;50.534;12.784;2022-07-19T13:13:52;7.87;;;2.83;;
73893;SDS011;62227;50.534;12.784;2022-07-19T13:18:53;6.10;;;3.10;;
73893;SDS011;62227;50.534;12.784;2022-07-19T13:23:54;7.35;;;3.03;;
73893;SDS011;62227;50.534;12.784;2022-07-19T13:29:05;5.78;;;2.92;;
73893;SDS011;62227;50.534;12.784;2022-07-19T13:34:05;6.93;;;2.85;;
73893;SDS011;62227;50.534;12.784;2022-07-19T13:39:06;7.00;;;2.75;;
73893;SDS011;62227;50.534;12.784;2022-07-19T13:44:06;6.00;;;2.90;;
73893;SDS011;62227;50.534;12.784;2022-07-19T13:49:07;5.75;;;2.78;;
73893;SDS011;62227;50.534;12.784;2022-07-19T13:54:07;5.90;;;2.90;;
73893;SDS011;62227;50.534;12.784;2022-07-19T13:59:08;7.07;;;2.60;;
73893;SDS011;62227;50.534;12.784;2022-07-19T14:04:08;4.65;;;2.72;;
73893;SDS011;62227;50.534;12.784;2022-07-19T14:09:08;4.93;;;2.78;;
73893;SDS011;62227;50.534;12.784;2022-07-19T14:14:09;7.95;;;2.72;;
73893;SDS011;62227;50.534;12.784;2022-07-19T14:19:09;6.03;;;2.67;;
73893;SDS011;62227;50.534;12.784;2022-07-19T14:24:10;4.43;;;2.50;;
73893;SDS011;62227;50.534;12.784;2022-07-19T14:29:10;5.00;;;2.42;;
73893;SDS011;62227;50.534;12.784;2022-07-19T14:34:10;6.15;;;2.70;;
73893;SDS011;62227;50.534;12.784;2022-07-19T14:39:11;5.10;;;2.80;;
73893;SDS011;62227;50.534;12.784;2022-07-19T14:44:11;4.47;;;2.67;;
73893;SDS011;62227;50.534;12.784;2022-07-19T14:49:12;6.40;;;2.75;;
73893;SDS011;62227;50.534;12.784;2022-07-19T14:54:12;6.03;;;2.80;;
73893;SDS011;62227;50.534;12.784;2022-07-19T14:59:12;5.65;;;2.85;;
73893;SDS011;62227;50.534;12.784;2022-07-19T15:04:13;5.75;;;2.80;;
73893;SDS011;62227;50.534;12.784;2022-07-19T15:09:14;5.70;;;2.88;;
73893;SDS011;62227;50.534;12.784;2022-07-19T15:14:14;6.43;;;2.78;;
73893;SDS011;62227;50.534;12.784;2022-07-19T15:19:14;5.97;;;2.42;;
73893;SDS011;62227;50.534;12.784;2022-07-19T15:24:15;5.50;;;2.72;;
73893;SDS011;62227;50.534;12.784;2022-07-19T15:29:16;5.00;;;2.70;;
73893;SDS011;62227;50.534;12.784;2022-07-19T15:34:16;5.40;;;2.95;;
73893;SDS011;62227;50.534;12.784;2022-07-19T15:39:17;5.20;;;2.60;;
73893;SDS011;62227;50.534;12.784;2022-07-19T15:44:17;8.00;;;3.10;;
73893;SDS011;62227;50.534;12.784;2022-07-19T15:49:17;6.55;;;3.22;;
73893;SDS011;62227;50.534;12.784;2022-07-19T15:54:18;4.07;;;2.43;;
73893;SDS011;62227;50.534;12.784;2022-07-19T15:59:18;5.30;;;2.72;;
73893;SDS011;62227;50.534;12.784;2022-07-19T16:04:18;6.63;;;3.30;;
73893;SDS011;62227;50.534;12.784;2022-07-19T16:09:19;5.63;;;2.90;;
73893;SDS011;62227;50.534;12.784;2022-07-19T16:14:19;5.93;;;3.03;;
73893;SDS011;62227;50.534;12.784;2022-07-19T16:19:20;4.97;;;2.65;;
73893;SDS011;62227;50.534;12.784;2022-07-19T16:24:20;4.03;;;2.78;;
73893;SDS011;62227;50.534;12.784;2022-07-19T16:29:20;6.25;;;2.80;;
73893;SDS011;62227;50.534;12.784;2022-07-19T16:34:26;7.13;;;3.17;;
73893;SDS011;62227;50.534;12.784;2022-07-19T16:39:26;4.57;;;2.40;;
73893;SDS011;62227;50.534;12.784;2022-07-19T16:44:27;5.53;;;2.63;;
73893;SDS011;62227;50.534;12.784;2022-07-19T16:49:28;6.93;;;2.80;;
73893;SDS011;62227;50.534;12.784;2022-07-19T16:54:28;5.82;;;2.63;;
73893;SDS011;62227;50.534;12.784;2022-07-19T16:59:28;4.07;;;2.28;;
73893;SDS011;62227;50.534;12.784;2022-07-19T17:04:29;5.13;;;2.30;;
73893;SDS011;62227;50.534;12.784;2022-07-19T17:09:29;6.13;;;2.50;;
73893;SDS011;62227;50.534;12.784;2022-07-19T17:14:30;5.10;;;2.53;;
73893;SDS011;62227;50.534;12.784;2022-07-19T17:19:30;10.18;;;3.10;;
73893;SDS011;62227;50.534;12.784;2022-07-19T17:24:31;5.82;;;2.50;;
73893;SDS011;62227;50.534;12.784;2022-07-19T17:29:31;5.00;;;2.63;;
73893;SDS011;62227;50.534;12.784;2022-07-19T17:34:31;3.80;;;2.40;;
73893;SDS011;62227;50.534;12.784;2022-07-19T17:39:32;5.47;;;2.35;;
73893;SDS011;62227;50.534;12.784;2022-07-19T17:44:32;4.43;;;1.90;;
73893;SDS011;62227;50.534;12.784;2022-07-19T17:49:32;4.47;;;2.35;;
73893;SDS011;62227;50.534;12.784;2022-07-19T17:54:33;4.17;;;2.33;;
73893;SDS011;62227;50.534;12.784;2022-07-19T17:59:33;5.63;;;2.30;;
73893;SDS011;62227;50.534;12.784;2022-07-19T18:04:34;4.47;;;2.47;;
73893;SDS011;62227;50.534;12.784;2022-07-19T18:09:34;4.30;;;2.30;;
73893;SDS011;62227;50.534;12.784;2022-07-19T18:14:34;3.78;;;2.22;;
73893;SDS011;62227;50.534;12.784;2022-07-19T18:19:35;4.05;;;2.50;;
73893;SDS011;62227;50.534;12.784;2022-07-19T18:24:36;4.13;;;2.08;;
73893;SDS011;62227;50.534;12.784;2022-07-19T18:29:36;5.85;;;2.45;;
73893;SDS011;62227;50.534;12.784;2022-07-19T18:34:37;3.55;;;2.10;;
73893;SDS011;62227;50.534;12.784;2022-07-19T18:39:40;5.73;;;2.50;;
73893;SDS011;62227;50.534;12.784;2022-07-19T18:44:43;4.93;;;2.65;;
73893;SDS011;62227;50.534;12.784;2022-07-19T18:49:44;6.38;;;2.85;;
73893;SDS011;62227;50.534;12.784;2022-07-19T18:54:45;4.32;;;2.47;;
73893;SDS011;62227;50.534;12.784;2022-07-19T18:59:45;6.68;;;2.60;;
73893;SDS011;62227;50.534;12.784;2022-07-19T19:04:46;8.52;;;2.90;;
73893;SDS011;62227;50.534;12.784;2022-07-19T19:09:48;5.97;;;3.13;;
73893;SDS011;62227;50.534;12.784;2022-07-19T19:14:49;7.03;;;3.08;;
73893;SDS011;62227;50.534;12.784;2022-07-19T19:19:49;5.83;;;3.20;;
73893;SDS011;62227;50.534;12.784;2022-07-19T19:24:52;9.25;;;3.63;;
73893;SDS011;62227;50.534;12.784;2022-07-19T19:29:52;10.50;;;4.38;;
73893;SDS011;62227;50.534;12.784;2022-07-19T19:34:53;8.93;;;3.38;;
73893;SDS011;62227;50.534;12.784;2022-07-19T19:39:58;9.48;;;4.05;;
73893;SDS011;62227;50.534;12.784;2022-07-19T19:44:58;7.63;;;3.50;;
73893;SDS011;62227;50.534;12.784;2022-07-19T19:49:59;7.25;;;3.63;;
73893;SDS011;62227;50.534;12.784;2022-07-19T19:55:00;5.43;;;3.20;;
73893;SDS011;62227;50.534;12.784;2022-07-19T20:00:00;7.22;;;3.90;;
73893;SDS011;62227;50.534;12.784;2022-07-19T20:05:01;6.80;;;3.63;;
73893;SDS011;62227;50.534;12.784;2022-07-19T20:10:01;8.68;;;3.60;;
73893;SDS011;62227;50.534;12.784;2022-07-19T20:15:03;6.85;;;3.72;;
73893;SDS011;62227;50.534;12.784;2022-07-19T20:20:05;7.35;;;3.78;;
73893;SDS011;62227;50.534;12.784;2022-07-19T20:25:06;7.13;;;4.25;;
73893;SDS011;62227;50.534;12.784;2022-07-19T20:30:07;5.75;;;3.33;;
73893;SDS011;62227;50.534;12.784;2022-07-19T20:35:08;7.97;;;4.30;;
73893;SDS011;62227;50.534;12.784;2022-07-19T20:40:09;6.82;;;4.03;;
73893;SDS011;62227;50.534;12.784;2022-07-19T20:45:10;7.10;;;3.75;;
73893;SDS011;62227;50.534;12.784;2022-07-19T20:50:13;8.65;;;3.80;;
73893;SDS011;62227;50.534;12.784;2022-07-19T20:55:13;7.82;;;3.55;;
73893;SDS011;62227;50.534;12.784;2022-07-19T21:00:14;8.15;;;4.03;;
73893;SDS011;62227;50.534;12.784;2022-07-19T21:05:15;7.13;;;3.58;;
73893;SDS011;62227;50.534;12.784;2022-07-19T21:10:15;9.13;;;3.90;;
73893;SDS011;62227;50.534;12.784;2022-07-19T21:15:15;11.07;;;4.10;;
73893;SDS011;62227;50.534;12.784;2022-07-19T21:20:16;5.68;;;3.22;;
73893;SDS011;62227;50.534;12.784;2022-07-19T21:25:18;7.75;;;4.18;;
73893;SDS011;62227;50.534;12.784;2022-07-19T21:30:18;9.88;;;4.55;;
73893;SDS011;62227;50.534;12.784;2022-07-19T21:35:19;8.10;;;3.88;;
73893;SDS011;62227;50.534;12.784;2022-07-19T21:40:20;8.52;;;4.20;;
73893;SDS011;62227;50.534;12.784;2022-07-19T21:45:20;9.13;;;4.07;;
73893;SDS011;62227;50.534;12.784;2022-07-19T21:50:21;9.50;;;4.28;;
73893;SDS011;62227;50.534;12.784;2022-07-19T21:55:21;9.23;;;4.80;;
73893;SDS011;62227;50.534;12.784;2022-07-19T22:00:21;7.70;;;4.53;;
73893;SDS011;62227;50.534;12.784;2022-07-19T22:05:22;8.63;;;4.13;;
73893;SDS011;62227;50.534;12.784;2022-07-19T22:10:22;11.75;;;4.97;;
73893;SDS011;62227;50.534;12.784;2022-07-19T22:15:23;11.60;;;4.60;;
73893;SDS011;62227;50.534;12.784;2022-07-19T22:20:23;9.00;;;4.50;;
73893;SDS011;62227;50.534;12.784;2022-07-19T22:25:24;8.25;;;4.63;;
73893;SDS011;62227;50.534;12.784;2022-07-19T22:30:24;8.60;;;4.43;;
73893;SDS011;62227;50.534;12.784;2022-07-19T22:35:24;8.40;;;4.40;;
73893;SDS011;62227;50.534;12.784;2022-07-19T22:40:25;9.23;;;4.18;;
73893;SDS011;62227;50.534;12.784;2022-07-19T22:45:26;9.10;;;4.22;;
73893;SDS011;62227;50.534;12.784;2022-07-19T22:50:26;8.50;;;4.22;;
73893;SDS011;62227;50.534;12.784;2022-07-19T22:55:27;11.45;;;4.60;;
73893;SDS011;62227;50.534;12.784;2022-07-19T23:00:27;8.90;;;4.40;;
73893;SDS011;62227;50.534;12.784;2022-07-19T23:05:27;7.30;;;4.30;;
73893;SDS011;62227;50.534;12.784;2022-07-19T23:10:28;8.15;;;4.28;;
73893;SDS011;62227;50.534;12.784;2022-07-19T23:15:29;9.80;;;4.20;;
73893;SDS011;62227;50.534;12.784;2022-07-19T23:20:30;9.13;;;4.53;;
73893;SDS011;62227;50.534;12.784;2022-07-19T23:25:31;8.25;;;4.25;;
73893;SDS011;62227;50.534;12.784;2022-07-19T23:30:31;7.38;;;4.15;;
73893;SDS011;62227;50.534;12.784;2022-07-19T23:35:32;9.77;;;4.60;;
73893;SDS011;62227;50.534;12.784;2022-07-19T23:40:32;8.43;;;4.88;;
73893;SDS011;62227;50.534;12.784;2022-07-19T23:45:32;9.63;;;4.55;;
73893;SDS011;62227;50.534;12.784;2022-07-19T23:50:33;8.80;;;4.72;;
73893;SDS011;62227;50.534;12.784;2022-07-19T23:55:33;10.52;;;4.85;;
